sensor_id;sensor_type;location;lat;lon;timestamp;noise_LAeq;noise_LA_min;noise_LA_max;noise_LA01;noise_LA95
60031;Laerm;45901;47.600;9.890;2024-01-15T00:00:38;41.95;39.34;45.80;;
60031;Laerm;45901;47.600;9.890;2024-01-15T00:03:06;41.98;38.67;45.20;;
60031;Laerm;45901;47.600;9.890;2024-01-15T00:05:36;41.90;39.21;43.44;;
60031;Laerm;45901;47.600;9.890;2024-01-15T00:08:03;41.90;39.08;43.58;;
60031;Laerm;45901;47.600;9.890;2024-01-15T00:10:30;41.80;38.81;44.03;;
60031;Laerm;45901;47.600;9.890;2024-01-15T00:12:57;41.78;37.32;43.54;;
60031;Laerm;45901;47.600;9.890;2024-01-15T00:15:24;41.91;39.21;43.81;;
60031;Laerm;45901;47.600;9.890;2024-01-15T00:17:54;42.03;39.34;44.58;;
60031;Laerm;45901;47.600;9.890;2024-01-15T00:20:22;42.05;38.81;43.77;;
60031;Laerm;45901;47.600;9.890;2024-01-15T00:22:49;42.17;39.35;54.36;;
60031;Laerm;45901;47.600;9.890;2024-01-15T00:25:16;42.22;39.58;44.07;;
60031;Laerm;45901;47.600;9.890;2024-01-15T00:27:43;42.16;39.34;43.94;;
60031;Laerm;45901;47.600;9.890;2024-01-15T00:30:11;42.31;39.68;44.73;;
60031;Laerm;45901;47.600;9.890;2024-01-15T00:32:39;42.31;38.67;49.69;;
60031;Laerm;45901;47.600;9.890;2024-01-15T00:35:06;42.24;39.58;43.90;;
60031;Laerm;45901;47.600;9.890;2024-01-15T00:37:34;42.13;39.08;43.81;;
60031;Laerm;45901;47.600;9.890;2024-01-15T00:40:02;42.06;39.46;43.90;;
60031;Laerm;45901;47.600;9.890;2024-01-15T00:42:29;42.09;37.88;44.03;;
60031;Laerm;45901;47.600;9.890;2024-01-15T00:44:56;42.02;39.21;43.63;;
60031;Laerm;45901;47.600;9.890;2024-01-15T00:47:23;42.05;39.21;44.62;;
60031;Laerm;45901;47.600;9.890;2024-01-15T00:49:50;42.04;38.81;44.83;;
60031;Laerm;45901;47.600;9.890;2024-01-15T00:52:17;42.12;39.34;43.72;;
60031;Laerm;45901;47.600;9.890;2024-01-15T00:54:45;42.05;39.58;43.81;;
60031;Laerm;45901;47.600;9.890;2024-01-15T00:57:12;42.04;39.46;43.85;;
60031;Laerm;45901;47.600;9.890;2024-01-15T00:59:39;42.02;39.34;43.81;;
60031;Laerm;45901;47.600;9.890;2024-01-15T01:02:06;42.15;39.21;46.33;;
60031;Laerm;45901;47.600;9.890;2024-01-15T01:04:33;42.01;38.81;43.72;;
60031;Laerm;45901;47.600;9.890;2024-01-15T01:07:00;42.10;38.95;43.77;;
60031;Laerm;45901;47.600;9.890;2024-01-15T01:09:27;42.19;38.95;43.99;;
60031;Laerm;45901;47.600;9.890;2024-01-15T01:11:57;42.18;39.92;43.90;;
60031;Laerm;45901;47.600;9.890;2024-01-15T01:14:24;42.07;39.46;43.77;;
60031;Laerm;45901;47.600;9.890;2024-01-15T01:16:51;42.11;39.08;44.54;;
60031;Laerm;45901;47.600;9.890;2024-01-15T01:19:18;42.21;39.34;43.90;;
60031;Laerm;45901;47.600;9.890;2024-01-15T01:21:45;42.23;39.21;43.94;;
60031;Laerm;45901;47.600;9.890;2024-01-15T01:24:12;42.16;39.21;43.81;;
60031;Laerm;45901;47.600;9.890;2024-01-15T01:26:39;42.20;39.92;43.86;;
60031;Laerm;45901;47.600;9.890;2024-01-15T01:29:07;42.26;39.46;44.07;;
60031;Laerm;45901;47.600;9.890;2024-01-15T01:31:34;42.33;39.70;45.07;;
60031;Laerm;45901;47.600;9.890;2024-01-15T01:34:01;42.17;39.70;43.90;;
60031;Laerm;45901;47.600;9.890;2024-01-15T01:36:28;42.21;38.95;44.19;;
60031;Laerm;45901;47.600;9.890;2024-01-15T01:38:58;42.14;39.81;43.94;;
60031;Laerm;45901;47.600;9.890;2024-01-15T01:41:25;42.11;39.34;43.72;;
60031;Laerm;45901;47.600;9.890;2024-01-15T01:43:51;42.15;39.46;43.63;;
60031;Laerm;45901;47.600;9.890;2024-01-15T01:46:20;42.22;39.34;45.83;;
60031;Laerm;45901;47.600;9.890;2024-01-15T01:48:47;42.23;39.58;44.31;;
60031;Laerm;45901;47.600;9.890;2024-01-15T01:51:15;42.17;39.46;43.99;;
60031;Laerm;45901;47.600;9.890;2024-01-15T01:53:44;42.09;39.46;43.99;;
60031;Laerm;45901;47.600;9.890;2024-01-15T01:56:13;42.26;38.52;44.15;;
60031;Laerm;45901;47.600;9.890;2024-01-15T01:58:40;42.19;39.46;44.03;;
60031;Laerm;45901;47.600;9.890;2024-01-15T02:01:07;42.29;38.81;49.94;;
60031;Laerm;45901;47.600;9.890;2024-01-15T02:03:36;41.97;39.34;43.68;;
60031;Laerm;45901;47.600;9.890;2024-01-15T02:06:04;41.94;39.34;43.85;;
60031;Laerm;45901;47.600;9.890;2024-01-15T02:08:31;42.04;38.81;43.94;;
60031;Laerm;45901;47.600;9.890;2024-01-15T02:10:58;42.04;39.46;43.90;;
60031;Laerm;45901;47.600;9.890;2024-01-15T02:13:25;41.89;39.08;43.49;;
60031;Laerm;45901;47.600;9.890;2024-01-15T02:15:52;41.81;39.34;46.25;;
60031;Laerm;45901;47.600;9.890;2024-01-15T02:18:19;41.82;39.46;43.72;;
60031;Laerm;45901;47.600;9.890;2024-01-15T02:20:47;41.91;39.21;44.03;;
60031;Laerm;45901;47.600;9.890;2024-01-15T02:23:16;42.04;39.58;44.11;;
60031;Laerm;45901;47.600;9.890;2024-01-15T02:25:44;42.28;39.21;46.48;;
60031;Laerm;45901;47.600;9.890;2024-01-15T02:28:13;42.13;39.08;53.65;;
60031;Laerm;45901;47.600;9.890;2024-01-15T02:30:42;41.85;38.95;45.69;;
60031;Laerm;45901;47.600;9.890;2024-01-15T02:33:10;41.65;38.81;43.86;;
60031;Laerm;45901;47.600;9.890;2024-01-15T02:35:38;41.60;38.60;44.54;;
60031;Laerm;45901;47.600;9.890;2024-01-15T02:38:05;41.21;38.67;43.29;;
60031;Laerm;45901;47.600;9.890;2024-01-15T02:40:34;41.24;38.21;43.34;;
60031;Laerm;45901;47.600;9.890;2024-01-15T02:43:01;40.84;38.21;42.98;;
60031;Laerm;45901;47.600;9.890;2024-01-15T02:45:28;40.59;37.88;42.82;;
60031;Laerm;45901;47.600;9.890;2024-01-15T02:47:55;40.45;36.69;45.83;;
60031;Laerm;45901;47.600;9.890;2024-01-15T02:50:22;40.13;36.20;45.36;;
60031;Laerm;45901;47.600;9.890;2024-01-15T02:52:49;39.88;37.32;41.96;;
60031;Laerm;45901;47.600;9.890;2024-01-15T02:55:16;39.77;37.32;41.82;;
60031;Laerm;45901;47.600;9.890;2024-01-15T02:57:45;39.66;36.91;42.09;;
60031;Laerm;45901;47.600;9.890;2024-01-15T03:00:12;39.66;37.52;41.75;;
60031;Laerm;45901;47.600;9.890;2024-01-15T03:02:40;40.02;37.32;45.39;;
60031;Laerm;45901;47.600;9.890;2024-01-15T03:05:09;39.70;37.12;42.03;;
60031;Laerm;45901;47.600;9.890;2024-01-15T03:07:36;39.76;36.69;42.76;;
60031;Laerm;45901;47.600;9.890;2024-01-15T03:10:04;39.79;37.32;43.19;;
60031;Laerm;45901;47.600;9.890;2024-01-15T03:12:32;39.76;37.52;42.29;;
60031;Laerm;45901;47.600;9.890;2024-01-15T03:15:00;39.83;37.52;41.61;;
60031;Laerm;45901;47.600;9.890;2024-01-15T03:17:28;39.93;37.32;45.01;;
60031;Laerm;45901;47.600;9.890;2024-01-15T03:19:55;39.98;37.52;41.89;;
60031;Laerm;45901;47.600;9.890;2024-01-15T03:22:22;39.99;37.12;41.96;;
60031;Laerm;45901;47.600;9.890;2024-01-15T03:24:49;39.94;37.32;43.24;;
60031;Laerm;45901;47.600;9.890;2024-01-15T03:27:16;39.96;36.98;43.58;;
60031;Laerm;45901;47.600;9.890;2024-01-15T03:29:43;40.00;37.52;41.89;;
60031;Laerm;45901;47.600;9.890;2024-01-15T03:32:11;40.11;37.70;45.66;;
60031;Laerm;45901;47.600;9.890;2024-01-15T03:34:38;39.98;37.32;41.82;;
60031;Laerm;45901;47.600;9.890;2024-01-15T03:37:05;40.05;37.52;41.75;;
60031;Laerm;45901;47.600;9.890;2024-01-15T03:39:32;40.03;37.52;43.63;;
60031;Laerm;45901;47.600;9.890;2024-01-15T03:41:59;39.98;37.52;42.29;;
60031;Laerm;45901;47.600;9.890;2024-01-15T03:44:26;40.01;37.32;41.96;;
60031;Laerm;45901;47.600;9.890;2024-01-15T03:46:53;40.11;37.88;44.80;;
60031;Laerm;45901;47.600;9.890;2024-01-15T03:49:21;40.06;37.52;42.03;;
60031;Laerm;45901;47.600;9.890;2024-01-15T03:51:48;40.01;37.32;42.09;;
60031;Laerm;45901;47.600;9.890;2024-01-15T03:54:15;40.18;37.32;42.29;;
60031;Laerm;45901;47.600;9.890;2024-01-15T03:56:42;40.14;37.52;41.96;;
60031;Laerm;45901;47.600;9.890;2024-01-15T03:59:09;40.28;37.32;42.35;;
60031;Laerm;45901;47.600;9.890;2024-01-15T04:01:36;40.66;37.70;46.40;;
60031;Laerm;45901;47.600;9.890;2024-01-15T04:04:05;40.20;37.88;42.03;;
60031;Laerm;45901;47.600;9.890;2024-01-15T04:06:34;40.14;37.70;42.09;;
60031;Laerm;45901;47.600;9.890;2024-01-15T04:09:02;40.16;37.32;43.58;;
60031;Laerm;45901;47.600;9.890;2024-01-15T04:11:29;40.29;38.05;43.33;;
60031;Laerm;45901;47.600;9.890;2024-01-15T04:13:56;40.24;38.05;42.29;;
60031;Laerm;45901;47.600;9.890;2024-01-15T04:16:23;40.54;37.52;45.27;;
60031;Laerm;45901;47.600;9.890;2024-01-15T04:18:50;40.21;37.88;42.09;;
60031;Laerm;45901;47.600;9.890;2024-01-15T04:21:17;40.20;37.88;44.62;;
60031;Laerm;45901;47.600;9.890;2024-01-15T04:23:45;40.40;37.88;43.44;;
60031;Laerm;45901;47.600;9.890;2024-01-15T04:26:12;40.32;37.88;43.94;;
60031;Laerm;45901;47.600;9.890;2024-01-15T04:28:39;41.14;37.88;48.20;;
60031;Laerm;45901;47.600;9.890;2024-01-15T04:31:07;40.43;38.05;45.23;;
60031;Laerm;45901;47.600;9.890;2024-01-15T04:33:34;40.37;38.05;42.29;;
60031;Laerm;45901;47.600;9.890;2024-01-15T04:36:02;40.39;37.70;42.88;;
60031;Laerm;45901;47.600;9.890;2024-01-15T04:38:29;40.47;38.05;43.39;;
60031;Laerm;45901;47.600;9.890;2024-01-15T04:40:59;40.32;37.70;42.22;;
60031;Laerm;45901;47.600;9.890;2024-01-15T04:43:26;40.35;37.70;42.22;;
60031;Laerm;45901;47.600;9.890;2024-01-15T04:45:53;40.42;37.52;45.80;;
60031;Laerm;45901;47.600;9.890;2024-01-15T04:48:20;40.54;38.05;48.43;;
60031;Laerm;45901;47.600;9.890;2024-01-15T04:50:48;40.29;37.52;42.16;;
60031;Laerm;45901;47.600;9.890;2024-01-15T04:53:16;40.26;37.12;42.29;;
60031;Laerm;45901;47.600;9.890;2024-01-15T04:55:43;40.45;37.88;44.58;;
60031;Laerm;45901;47.600;9.890;2024-01-15T04:58:11;40.27;37.70;42.71;;
60031;Laerm;45901;47.600;9.890;2024-01-15T05:00:38;40.27;38.05;42.22;;
60031;Laerm;45901;47.600;9.890;2024-01-15T05:03:05;41.12;38.05;45.99;;
60031;Laerm;45901;47.600;9.890;2024-01-15T05:05:32;40.48;37.88;44.69;;
60031;Laerm;45901;47.600;9.890;2024-01-15T05:07:59;40.53;37.70;44.11;;
60031;Laerm;45901;47.600;9.890;2024-01-15T05:10:26;40.38;38.05;42.59;;
60031;Laerm;45901;47.600;9.890;2024-01-15T05:12:53;40.34;38.05;42.47;;
60031;Laerm;45901;47.600;9.890;2024-01-15T05:15:21;40.37;38.02;43.04;;
60031;Laerm;45901;47.600;9.890;2024-01-15T05:17:48;40.43;38.05;44.51;;
60031;Laerm;45901;47.600;9.890;2024-01-15T05:20:16;40.47;38.05;42.93;;
60031;Laerm;45901;47.600;9.890;2024-01-15T05:22:43;40.45;37.52;42.65;;
60031;Laerm;45901;47.600;9.890;2024-01-15T05:25:10;40.42;37.32;44.07;;
60031;Laerm;45901;47.600;9.890;2024-01-15T05:27:37;40.42;38.05;43.14;;
60031;Laerm;45901;47.600;9.890;2024-01-15T05:30:05;40.54;37.88;42.53;;
60031;Laerm;45901;47.600;9.890;2024-01-15T05:32:34;40.51;37.70;44.49;;
60031;Laerm;45901;47.600;9.890;2024-01-15T05:35:01;40.56;37.88;42.88;;
60031;Laerm;45901;47.600;9.890;2024-01-15T05:37:28;40.53;38.05;42.22;;
60031;Laerm;45901;47.600;9.890;2024-01-15T05:39:55;40.76;38.21;44.11;;
60031;Laerm;45901;47.600;9.890;2024-01-15T05:42:22;40.58;37.88;43.24;;
60031;Laerm;45901;47.600;9.890;2024-01-15T05:44:49;40.80;38.37;45.14;;
60031;Laerm;45901;47.600;9.890;2024-01-15T05:47:16;40.75;38.37;45.39;;
60031;Laerm;45901;47.600;9.890;2024-01-15T05:49:45;40.79;38.52;43.24;;
60031;Laerm;45901;47.600;9.890;2024-01-15T05:52:13;40.71;38.52;43.44;;
60031;Laerm;45901;47.600;9.890;2024-01-15T05:54:40;40.67;38.05;42.76;;
60031;Laerm;45901;47.600;9.890;2024-01-15T05:57:07;40.69;38.21;43.49;;
60031;Laerm;45901;47.600;9.890;2024-01-15T05:59:34;40.71;37.32;43.19;;
60031;Laerm;45901;47.600;9.890;2024-01-15T06:02:02;40.98;37.70;47.76;;
60031;Laerm;45901;47.600;9.890;2024-01-15T06:04:29;40.33;37.52;44.35;;
60031;Laerm;45901;47.600;9.890;2024-01-15T06:06:58;40.18;37.88;43.19;;
60031;Laerm;45901;47.600;9.890;2024-01-15T06:09:25;40.29;37.12;44.62;;
60031;Laerm;45901;47.600;9.890;2024-01-15T06:11:52;40.26;37.32;46.71;;
60031;Laerm;45901;47.600;9.890;2024-01-15T06:14:19;39.98;37.52;42.88;;
60031;Laerm;45901;47.600;9.890;2024-01-15T06:16:46;40.11;37.32;45.51;;
60031;Laerm;45901;47.600;9.890;2024-01-15T06:19:13;40.69;37.70;45.11;;
60031;Laerm;45901;47.600;9.890;2024-01-15T06:21:40;40.53;37.70;43.77;;
60031;Laerm;45901;47.600;9.890;2024-01-15T06:24:09;40.60;37.52;43.39;;
60031;Laerm;45901;47.600;9.890;2024-01-15T06:26:36;40.63;38.05;45.17;;
60031;Laerm;45901;47.600;9.890;2024-01-15T06:29:03;40.60;37.88;56.00;;
60031;Laerm;45901;47.600;9.890;2024-01-15T06:31:31;41.20;37.12;47.65;;
60031;Laerm;45901;47.600;9.890;2024-01-15T06:33:58;41.02;38.21;44.73;;
60031;Laerm;45901;47.600;9.890;2024-01-15T06:36:25;40.41;37.52;43.04;;
60031;Laerm;45901;47.600;9.890;2024-01-15T06:38:52;40.81;37.52;44.07;;
60031;Laerm;45901;47.600;9.890;2024-01-15T06:41:21;40.13;37.70;42.47;;
60031;Laerm;45901;47.600;9.890;2024-01-15T06:43:48;40.58;37.88;46.76;;
60031;Laerm;45901;47.600;9.890;2024-01-15T06:46:20;40.85;37.88;46.55;;
60031;Laerm;45901;47.600;9.890;2024-01-15T06:48:48;40.50;37.70;45.66;;
60031;Laerm;45901;47.600;9.890;2024-01-15T06:51:16;40.46;37.88;46.18;;
60031;Laerm;45901;47.600;9.890;2024-01-15T06:53:43;40.74;38.21;45.54;;
60031;Laerm;45901;47.600;9.890;2024-01-15T06:56:10;40.41;37.12;60.48;;
60031;Laerm;45901;47.600;9.890;2024-01-15T06:58:39;41.08;37.52;59.38;;
60031;Laerm;45901;47.600;9.890;2024-01-15T07:01:06;40.96;37.88;55.31;;
60031;Laerm;45901;47.600;9.890;2024-01-15T07:03:33;40.34;37.35;44.65;;
60031;Laerm;45901;47.600;9.890;2024-01-15T07:06:01;40.13;36.91;42.29;;
60031;Laerm;45901;47.600;9.890;2024-01-15T07:08:28;40.20;37.52;42.71;;
60031;Laerm;45901;47.600;9.890;2024-01-15T07:10:56;41.14;38.21;46.89;;
60031;Laerm;45901;47.600;9.890;2024-01-15T07:13:23;40.76;37.52;50.33;;
60031;Laerm;45901;47.600;9.890;2024-01-15T07:15:51;40.62;37.88;53.46;;
60031;Laerm;45901;47.600;9.890;2024-01-15T07:18:18;40.14;38.05;44.11;;
60031;Laerm;45901;47.600;9.890;2024-01-15T07:20:46;40.08;37.52;45.11;;
60031;Laerm;45901;47.600;9.890;2024-01-15T07:23:13;39.90;37.52;42.03;;
60031;Laerm;45901;47.600;9.890;2024-01-15T07:25:40;40.02;37.52;42.65;;
60031;Laerm;45901;47.600;9.890;2024-01-15T07:28:07;40.40;37.70;44.19;;
60031;Laerm;45901;47.600;9.890;2024-01-15T07:30:34;40.60;37.88;49.45;;
60031;Laerm;45901;47.600;9.890;2024-01-15T07:33:06;40.28;37.70;45.83;;
60031;Laerm;45901;47.600;9.890;2024-01-15T07:35:33;40.31;37.88;44.11;;
60031;Laerm;45901;47.600;9.890;2024-01-15T07:38:00;40.70;37.88;44.19;;
60031;Laerm;45901;47.600;9.890;2024-01-15T07:40:27;40.73;37.88;43.99;;
60031;Laerm;45901;47.600;9.890;2024-01-15T07:42:54;40.90;37.32;51.39;;
60031;Laerm;45901;47.600;9.890;2024-01-15T07:45:21;40.28;37.70;44.54;;
60031;Laerm;45901;47.600;9.890;2024-01-15T07:47:48;40.26;37.70;46.40;;
60031;Laerm;45901;47.600;9.890;2024-01-15T07:50:17;40.15;37.70;44.35;;
60031;Laerm;45901;47.600;9.890;2024-01-15T07:52:44;40.06;37.32;44.03;;
60031;Laerm;45901;47.600;9.890;2024-01-15T07:55:12;40.37;37.12;45.51;;
60031;Laerm;45901;47.600;9.890;2024-01-15T07:57:39;40.79;37.70;46.33;;
60031;Laerm;45901;47.600;9.890;2024-01-15T08:00:07;40.61;37.32;47.34;;
60031;Laerm;45901;47.600;9.890;2024-01-15T08:02:35;40.69;37.70;48.16;;
60031;Laerm;45901;47.600;9.890;2024-01-15T08:05:02;39.98;37.52;44.76;;
60031;Laerm;45901;47.600;9.890;2024-01-15T08:07:31;39.79;37.32;45.45;;
60031;Laerm;45901;47.600;9.890;2024-01-15T08:09:58;40.03;37.32;45.07;;
60031;Laerm;45901;47.600;9.890;2024-01-15T08:12:26;40.09;37.32;43.09;;
60031;Laerm;45901;47.600;9.890;2024-01-15T08:14:53;39.76;36.91;41.82;;
60031;Laerm;45901;47.600;9.890;2024-01-15T08:17:20;40.01;37.12;45.69;;
60031;Laerm;45901;47.600;9.890;2024-01-15T08:19:47;40.57;37.52;44.31;;
60031;Laerm;45901;47.600;9.890;2024-01-15T08:22:15;39.94;37.52;42.71;;
60031;Laerm;45901;47.600;9.890;2024-01-15T08:24:44;40.07;37.32;42.47;;
60031;Laerm;45901;47.600;9.890;2024-01-15T08:27:11;39.91;36.91;48.84;;
60031;Laerm;45901;47.600;9.890;2024-01-15T08:29:38;40.50;37.32;48.78;;
60031;Laerm;45901;47.600;9.890;2024-01-15T08:32:06;40.13;37.52;44.69;;
60031;Laerm;45901;47.600;9.890;2024-01-15T08:34:33;40.08;36.45;43.24;;
60031;Laerm;45901;47.600;9.890;2024-01-15T08:37:00;40.45;37.32;44.39;;
60031;Laerm;45901;47.600;9.890;2024-01-15T08:39:28;40.37;38.05;42.76;;
60031;Laerm;45901;47.600;9.890;2024-01-15T08:41:57;40.26;38.05;42.29;;
60031;Laerm;45901;47.600;9.890;2024-01-15T08:44:24;40.70;38.05;45.45;;
60031;Laerm;45901;47.600;9.890;2024-01-15T08:46:51;41.00;38.05;49.43;;
60031;Laerm;45901;47.600;9.890;2024-01-15T08:49:18;40.49;37.52;44.31;;
60031;Laerm;45901;47.600;9.890;2024-01-15T08:51:46;40.83;38.37;47.57;;
60031;Laerm;45901;47.600;9.890;2024-01-15T08:54:14;40.65;38.21;43.34;;
60031;Laerm;45901;47.600;9.890;2024-01-15T08:56:41;40.52;38.05;42.65;;
60031;Laerm;45901;47.600;9.890;2024-01-15T08:59:09;41.04;38.37;45.33;;
60031;Laerm;45901;47.600;9.890;2024-01-15T09:01:38;41.18;38.37;48.32;;
60031;Laerm;45901;47.600;9.890;2024-01-15T09:04:06;40.66;38.52;43.72;;
60031;Laerm;45901;47.600;9.890;2024-01-15T09:06:33;40.69;38.05;42.53;;
60031;Laerm;45901;47.600;9.890;2024-01-15T09:09:00;40.62;38.21;42.93;;
60031;Laerm;45901;47.600;9.890;2024-01-15T09:11:28;40.78;38.37;42.88;;
60031;Laerm;45901;47.600;9.890;2024-01-15T09:13:55;41.16;38.52;51.95;;
60031;Laerm;45901;47.600;9.890;2024-01-15T09:16:23;41.21;38.95;45.14;;
60031;Laerm;45901;47.600;9.890;2024-01-15T09:18:51;40.98;38.37;42.82;;
60031;Laerm;45901;47.600;9.890;2024-01-15T09:21:18;40.76;37.70;43.44;;
60031;Laerm;45901;47.600;9.890;2024-01-15T09:23:45;40.78;38.52;42.71;;
60031;Laerm;45901;47.600;9.890;2024-01-15T09:26:12;40.93;38.52;44.03;;
60031;Laerm;45901;47.600;9.890;2024-01-15T09:28:39;40.97;38.05;44.31;;
60031;Laerm;45901;47.600;9.890;2024-01-15T09:31:07;41.08;38.52;44.94;;
60031;Laerm;45901;47.600;9.890;2024-01-15T09:33:35;40.78;38.37;42.53;;
60031;Laerm;45901;47.600;9.890;2024-01-15T09:36:03;40.97;38.21;47.00;;
60031;Laerm;45901;47.600;9.890;2024-01-15T09:38:31;40.97;38.37;42.82;;
60031;Laerm;45901;47.600;9.890;2024-01-15T09:40:58;41.08;38.21;44.23;;
60031;Laerm;45901;47.600;9.890;2024-01-15T09:43:26;40.98;38.37;43.58;;
60031;Laerm;45901;47.600;9.890;2024-01-15T09:45:54;40.92;37.88;46.25;;
60031;Laerm;45901;47.600;9.890;2024-01-15T09:48:21;40.75;38.21;44.90;;
60031;Laerm;45901;47.600;9.890;2024-01-15T09:50:50;40.69;37.88;42.71;;
60031;Laerm;45901;47.600;9.890;2024-01-15T09:53:19;40.80;37.88;43.49;;
60031;Laerm;45901;47.600;9.890;2024-01-15T09:55:47;40.84;38.37;44.47;;
60031;Laerm;45901;47.600;9.890;2024-01-15T09:58:16;40.91;37.32;44.62;;
60031;Laerm;45901;47.600;9.890;2024-01-15T10:00:44;40.97;38.05;45.36;;
60031;Laerm;45901;47.600;9.890;2024-01-15T10:03:15;41.40;38.37;48.02;;
60031;Laerm;45901;47.600;9.890;2024-01-15T10:05:44;40.74;37.88;42.69;;
60031;Laerm;45901;47.600;9.890;2024-01-15T10:08:12;40.96;38.52;44.83;;
60031;Laerm;45901;47.600;9.890;2024-01-15T10:10:41;40.87;38.37;43.58;;
60031;Laerm;45901;47.600;9.890;2024-01-15T10:13:08;40.86;38.05;44.23;;
60031;Laerm;45901;47.600;9.890;2024-01-15T10:15:38;40.83;38.37;45.42;;
60031;Laerm;45901;47.600;9.890;2024-01-15T10:18:05;41.16;38.52;47.61;;
60031;Laerm;45901;47.600;9.890;2024-01-15T10:20:33;41.05;38.37;45.91;;
60031;Laerm;45901;47.600;9.890;2024-01-15T10:23:00;41.16;38.52;45.63;;
60031;Laerm;45901;47.600;9.890;2024-01-15T10:25:29;41.09;37.88;45.63;;
60031;Laerm;45901;47.600;9.890;2024-01-15T10:28:02;41.12;38.67;45.20;;
60031;Laerm;45901;47.600;9.890;2024-01-15T10:30:30;40.72;37.88;44.94;;
60031;Laerm;45901;47.600;9.890;2024-01-15T10:32:59;40.68;38.05;46.28;;
60031;Laerm;45901;47.600;9.890;2024-01-15T10:35:29;40.74;38.37;42.65;;
60031;Laerm;45901;47.600;9.890;2024-01-15T10:37:56;40.84;38.21;44.83;;
60031;Laerm;45901;47.600;9.890;2024-01-15T10:40:23;40.87;38.37;45.83;;
60031;Laerm;45901;47.600;9.890;2024-01-15T10:42:52;41.10;38.52;48.66;;
60031;Laerm;45901;47.600;9.890;2024-01-15T10:45:19;40.96;38.05;45.33;;
60031;Laerm;45901;47.600;9.890;2024-01-15T10:47:46;40.69;38.37;45.66;;
60031;Laerm;45901;47.600;9.890;2024-01-15T10:50:14;40.76;38.05;43.77;;
60031;Laerm;45901;47.600;9.890;2024-01-15T10:52:42;40.49;38.47;42.41;;
60031;Laerm;45901;47.600;9.890;2024-01-15T10:55:10;40.48;38.37;46.05;;
60031;Laerm;45901;47.600;9.890;2024-01-15T10:57:38;40.55;37.70;43.68;;
60031;Laerm;45901;47.600;9.890;2024-01-15T11:00:08;40.38;38.21;42.76;;
60031;Laerm;45901;47.600;9.890;2024-01-15T11:02:41;41.19;38.18;47.86;;
60031;Laerm;45901;47.600;9.890;2024-01-15T11:05:10;41.58;38.67;45.48;;
60031;Laerm;45901;47.600;9.890;2024-01-15T11:07:40;40.60;38.05;44.39;;
60031;Laerm;45901;47.600;9.890;2024-01-15T11:10:08;40.41;37.88;44.31;;
60031;Laerm;45901;47.600;9.890;2024-01-15T11:12:56;40.27;37.70;43.24;;
60031;Laerm;45901;47.600;9.890;2024-01-15T11:15:24;40.18;37.32;42.88;;
60031;Laerm;45901;47.600;9.890;2024-01-15T11:17:59;40.28;37.88;45.04;;
60031;Laerm;45901;47.600;9.890;2024-01-15T11:20:27;40.13;37.52;42.47;;
60031;Laerm;45901;47.600;9.890;2024-01-15T11:22:54;41.52;38.05;56.10;;
60031;Laerm;45901;47.600;9.890;2024-01-15T11:25:23;40.61;37.12;46.87;;
60031;Laerm;45901;47.600;9.890;2024-01-15T11:27:52;40.24;37.88;44.87;;
60031;Laerm;45901;47.600;9.890;2024-01-15T11:30:26;40.11;37.32;44.47;;
60031;Laerm;45901;47.600;9.890;2024-01-15T11:32:53;40.39;36.91;45.51;;
60031;Laerm;45901;47.600;9.890;2024-01-15T11:35:20;40.13;37.70;43.39;;
60031;Laerm;45901;47.600;9.890;2024-01-15T11:37:58;40.17;37.87;43.54;;
60031;Laerm;45901;47.600;9.890;2024-01-15T11:40:39;39.93;37.32;42.35;;
60031;Laerm;45901;47.600;9.890;2024-01-15T11:43:08;40.27;37.52;46.30;;
60031;Laerm;45901;47.600;9.890;2024-01-15T11:45:37;40.46;37.70;47.81;;
60031;Laerm;45901;47.600;9.890;2024-01-15T11:48:11;41.11;37.12;51.79;;
60031;Laerm;45901;47.600;9.890;2024-01-15T11:50:44;40.74;38.05;44.80;;
60031;Laerm;45901;47.600;9.890;2024-01-15T11:53:17;40.40;37.52;47.38;;
60031;Laerm;45901;47.600;9.890;2024-01-15T11:55:47;40.19;37.52;43.72;;
60031;Laerm;45901;47.600;9.890;2024-01-15T11:58:18;40.36;37.52;44.87;;
60031;Laerm;45901;47.600;9.890;2024-01-15T12:00:48;40.29;37.70;47.04;;
60031;Laerm;45901;47.600;9.890;2024-01-15T12:03:15;40.75;37.12;49.69;;
60031;Laerm;45901;47.600;9.890;2024-01-15T12:05:42;40.71;38.21;47.18;;
60031;Laerm;45901;47.600;9.890;2024-01-15T12:08:09;40.89;38.05;51.64;;
60031;Laerm;45901;47.600;9.890;2024-01-15T12:10:37;40.71;37.88;44.90;;
60031;Laerm;45901;47.600;9.890;2024-01-15T12:13:10;40.69;37.52;45.66;;
60031;Laerm;45901;47.600;9.890;2024-01-15T12:15:38;40.39;37.52;45.91;;
60031;Laerm;45901;47.600;9.890;2024-01-15T12:18:09;40.36;37.32;48.60;;
60031;Laerm;45901;47.600;9.890;2024-01-15T12:20:37;40.97;37.70;52.76;;
60031;Laerm;45901;47.600;9.890;2024-01-15T12:23:04;41.16;38.21;54.80;;
60031;Laerm;45901;47.600;9.890;2024-01-15T12:25:32;41.14;37.88;56.20;;
60031;Laerm;45901;47.600;9.890;2024-01-15T12:28:00;41.08;37.88;53.28;;
60031;Laerm;45901;47.600;9.890;2024-01-15T12:30:29;39.92;37.12;43.14;;
60031;Laerm;45901;47.600;9.890;2024-01-15T12:32:57;40.71;37.52;47.38;;
60031;Laerm;45901;47.600;9.890;2024-01-15T12:35:25;41.96;37.88;61.54;;
60031;Laerm;45901;47.600;9.890;2024-01-15T12:37:54;42.74;38.05;61.06;;
60031;Laerm;45901;47.600;9.890;2024-01-15T12:40:22;41.00;37.70;51.70;;
60031;Laerm;45901;47.600;9.890;2024-01-15T12:42:50;41.58;37.52;48.66;;
60031;Laerm;45901;47.600;9.890;2024-01-15T12:45:18;40.83;37.88;52.59;;
60031;Laerm;45901;47.600;9.890;2024-01-15T12:47:46;40.78;37.52;55.53;;
60031;Laerm;45901;47.600;9.890;2024-01-15T12:50:13;40.68;37.52;49.27;;
60031;Laerm;45901;47.600;9.890;2024-01-15T12:52:42;40.25;37.32;43.81;;
60031;Laerm;45901;47.600;9.890;2024-01-15T12:55:09;41.44;38.21;53.20;;
60031;Laerm;45901;47.600;9.890;2024-01-15T12:57:37;41.44;37.52;59.43;;
60031;Laerm;45901;47.600;9.890;2024-01-15T13:00:06;40.77;37.32;53.35;;
60031;Laerm;45901;47.600;9.890;2024-01-15T13:02:36;40.58;37.52;49.35;;
60031;Laerm;45901;47.600;9.890;2024-01-15T13:05:04;40.55;37.32;45.11;;
60031;Laerm;45901;47.600;9.890;2024-01-15T13:07:31;40.32;36.69;43.77;;
60031;Laerm;45901;47.600;9.890;2024-01-15T13:10:01;40.18;37.12;44.23;;
60031;Laerm;45901;47.600;9.890;2024-01-15T13:12:59;40.45;37.32;48.13;;
60031;Laerm;45901;47.600;9.890;2024-01-15T13:16:09;40.14;37.12;46.52;;
60031;Laerm;45901;47.600;9.890;2024-01-15T13:19:24;40.08;36.45;43.81;;
60031;Laerm;45901;47.600;9.890;2024-01-15T13:22:00;41.23;37.32;49.04;;
60031;Laerm;45901;47.600;9.890;2024-01-15T13:36:54;40.21;36.91;47.90;;
60031;Laerm;45901;47.600;9.890;2024-01-15T13:39:21;40.48;37.52;49.06;;
60031;Laerm;45901;47.600;9.890;2024-01-15T13:41:49;40.51;37.70;45.33;;
60031;Laerm;45901;47.600;9.890;2024-01-15T13:44:16;40.26;37.12;44.97;;
60031;Laerm;45901;47.600;9.890;2024-01-15T13:46:43;40.24;37.32;44.94;;
60031;Laerm;45901;47.600;9.890;2024-01-15T13:49:10;40.23;37.12;43.54;;
60031;Laerm;45901;47.600;9.890;2024-01-15T13:51:37;40.57;37.12;46.38;;
60031;Laerm;45901;47.600;9.890;2024-01-15T13:54:05;40.22;37.12;44.31;;
60031;Laerm;45901;47.600;9.890;2024-01-15T13:56:39;40.15;36.91;46.30;;
60031;Laerm;45901;47.600;9.890;2024-01-15T13:59:13;40.08;36.91;47.88;;
60031;Laerm;45901;47.600;9.890;2024-01-15T14:01:42;40.42;36.91;47.72;;